createdAt,value
2022-12-23T00:01:58.119Z,9.14
2022-12-23T00:04:31.053Z,9.02
2022-12-23T00:06:58.016Z,9.16
2022-12-23T00:09:25.064Z,9.10
2022-12-23T00:11:54.789Z,8.91
2022-12-23T00:14:27.685Z,9.13
2022-12-23T00:16:57.514Z,9.18
2022-12-23T00:19:30.346Z,8.88
2022-12-23T00:21:59.549Z,8.95
2022-12-23T00:24:32.371Z,8.82
2022-12-23T00:26:59.407Z,8.91
2022-12-23T00:29:32.281Z,8.75
2022-12-23T00:32:05.198Z,9.14
2022-12-23T00:34:32.234Z,8.72
2022-12-23T00:36:59.354Z,9.16
2022-12-23T00:39:27.593Z,8.97
2022-12-23T00:41:54.577Z,9.08
2022-12-23T00:44:22.318Z,8.93
2022-12-23T00:46:55.111Z,9.17
2022-12-23T00:49:24.801Z,9.61
2022-12-23T00:52:16.695Z,9.16
2022-12-23T00:54:46.451Z,9.01
2022-12-23T00:57:18.429Z,9.07
2022-12-23T00:59:45.862Z,9.28
2022-12-23T01:02:18.809Z,9.08
2022-12-23T01:04:45.828Z,9.46
2022-12-23T01:07:12.873Z,9.63
2022-12-23T01:09:40.329Z,9.66
2022-12-23T01:15:50.069Z,9.55
2022-12-23T01:18:19.209Z,9.71
2022-12-23T01:20:51.539Z,9.59
2022-12-23T01:23:21.237Z,9.62
2022-12-23T01:25:58.502Z,9.43
2022-12-23T01:28:25.928Z,9.47
2022-12-23T01:30:55.553Z,9.43
2022-12-23T01:33:24.511Z,9.43
2022-12-23T01:35:59.339Z,9.55
2022-12-23T01:38:32.049Z,9.55
2022-12-23T01:41:01.713Z,9.79
2022-12-23T01:43:48.648Z,9.12
2022-12-23T01:46:18.441Z,9.18
2022-12-23T01:48:49.621Z,9.04
2022-12-23T01:51:25.957Z,8.90
2022-12-23T01:54:12.612Z,9.21
2022-12-23T01:56:45.434Z,9.37
2022-12-23T01:59:13.553Z,9.32
2022-12-23T02:01:40.677Z,9.58
2022-12-23T02:04:16.081Z,9.91
2022-12-23T02:06:46.629Z,9.67
2022-12-23T02:09:22.965Z,9.56
2022-12-23T02:12:19.399Z,9.54
2022-12-23T02:15:26.769Z,9.91
2022-12-23T02:18:24.046Z,9.77
2022-12-23T02:21:11.264Z,9.75
2022-12-23T02:24:02.978Z,9.81
2022-12-23T02:27:10.291Z,9.84
2022-12-23T02:30:17.595Z,9.76
2022-12-23T02:33:03.558Z,9.99
2022-12-23T02:36:18.341Z,9.68
2022-12-23T02:39:13.365Z,9.96
2022-12-23T02:42:11.880Z,10.43
2022-12-23T02:45:23.453Z,10.42
2022-12-23T02:47:56.684Z,9.91
2022-12-23T02:50:32.390Z,10.28
2022-12-23T02:53:08.717Z,9.81
2022-12-23T02:55:42.073Z,9.70
2022-12-23T02:58:14.981Z,9.76
2022-12-23T03:00:42.798Z,9.60
2022-12-23T03:03:10.203Z,9.35
2022-12-23T03:05:39.978Z,9.85
2022-12-23T03:08:34.779Z,9.81
2022-12-23T03:11:15.026Z,9.46
2022-12-23T03:14:07.977Z,10.05
2022-12-23T03:16:57.528Z,10.53
2022-12-23T03:19:38.246Z,9.47
2022-12-23T03:22:35.125Z,9.67
2022-12-23T03:25:24.689Z,9.66
2022-12-23T03:28:29.735Z,9.81
2022-12-23T03:30:57.522Z,10.31
2022-12-23T03:33:28.554Z,10.75
2022-12-23T03:36:02.405Z,10.11
2022-12-23T03:38:35.729Z,9.87
2022-12-23T03:41:06.756Z,10.77
2022-12-23T03:43:42.303Z,10.44
2022-12-23T03:46:23.397Z,9.96
2022-12-23T03:49:03.681Z,10.16
2022-12-23T03:51:53.029Z,10.39
2022-12-23T03:54:29.545Z,9.68
2022-12-23T03:57:04.977Z,10.06
2022-12-23T03:59:36.542Z,10.51
2022-12-23T04:02:38.895Z,9.11
2022-12-23T04:05:26.596Z,10.24
2022-12-23T04:08:07.914Z,10.56
2022-12-23T04:10:40.731Z,10.44
2022-12-23T04:13:27.617Z,9.88
2022-12-23T04:16:07.631Z,9.66
2022-12-23T04:18:57.975Z,10.57
2022-12-23T04:21:26.173Z,10.19
2022-12-23T04:23:53.604Z,9.11
2022-12-23T04:26:26.571Z,9.27
2022-12-23T04:28:53.660Z,10.12
2022-12-23T04:31:26.535Z,10.21
2022-12-23T04:33:54.208Z,9.51
2022-12-23T04:36:21.179Z,10.31
2022-12-23T04:38:49.218Z,10.73
2022-12-23T04:41:16.152Z,10.74
2022-12-23T04:43:45.408Z,11.23
2022-12-23T04:46:17.615Z,11.09
2022-12-23T04:48:44.661Z,11.18
2022-12-23T04:51:36.790Z,9.52
2022-12-23T04:54:09.749Z,10.05
2022-12-23T04:56:37.184Z,9.87
2022-12-23T04:59:06.786Z,9.97
2022-12-23T05:01:36.040Z,10.25
2022-12-23T05:04:03.278Z,9.51
2022-12-23T05:06:30.762Z,9.78
2022-12-23T05:08:58.360Z,9.77
2022-12-23T05:11:25.845Z,10.14
2022-12-23T05:13:52.776Z,10.36
2022-12-23T05:16:19.844Z,10.37
2022-12-23T05:18:49.695Z,10.34
2022-12-23T05:21:17.818Z,10.72
2022-12-23T05:23:50.639Z,10.88
2022-12-23T05:26:59.703Z,9.98
2022-12-23T05:29:27.886Z,10.15
2022-12-23T05:31:57.400Z,10.46
2022-12-23T05:34:24.478Z,10.12
2022-12-23T05:36:51.409Z,10.19
2022-12-23T05:39:18.157Z,9.77
2022-12-23T05:41:45.656Z,10.46
2022-12-23T05:44:15.357Z,10.99
2022-12-23T05:47:06.780Z,10.19
2022-12-23T05:49:33.668Z,10.20
2022-12-23T05:52:00.718Z,9.59
2022-12-23T05:54:27.682Z,10.22
2022-12-23T05:56:58.961Z,9.74
2022-12-23T05:59:30.707Z,9.54
2022-12-23T06:01:59.540Z,9.43
2022-12-23T06:04:26.799Z,9.56
2022-12-23T06:06:58.690Z,10.03
2022-12-23T06:09:28.490Z,9.30
2022-12-23T06:11:55.653Z,9.64
2022-12-23T06:14:28.866Z,9.32
2022-12-23T06:16:56.597Z,10.12
2022-12-23T06:19:23.630Z,9.51
2022-12-23T06:21:53.367Z,9.97
2022-12-23T06:24:22.902Z,9.65
2022-12-23T06:26:56.553Z,10.45
2022-12-23T06:29:24.043Z,10.02
2022-12-23T06:31:50.848Z,9.37
2022-12-23T06:34:23.808Z,9.44
2022-12-23T06:36:51.153Z,9.29
2022-12-23T06:39:20.733Z,9.25
2022-12-23T06:41:47.903Z,9.94
2022-12-23T06:44:16.913Z,9.98
2022-12-23T06:46:46.541Z,9.99
2022-12-23T06:49:14.153Z,10.49
2022-12-23T06:51:42.095Z,11.19
2022-12-23T06:54:12.937Z,10.78
2022-12-23T06:56:46.012Z,10.69
2022-12-23T06:59:12.871Z,10.65
2022-12-23T07:05:36.453Z,10.57
2022-12-23T07:08:04.008Z,10.97
2022-12-23T07:10:31.268Z,10.29
2022-12-23T07:12:58.021Z,10.08
2022-12-23T07:15:24.832Z,10.45
2022-12-23T07:17:51.574Z,10.00
2022-12-23T07:20:18.265Z,9.70
2022-12-23T07:22:44.975Z,10.30
2022-12-23T07:25:11.718Z,9.53
2022-12-23T07:27:38.856Z,9.81
2022-12-23T07:30:07.600Z,10.24
2022-12-23T07:32:35.078Z,11.10
2022-12-23T07:35:01.825Z,11.01
2022-12-23T07:37:28.763Z,10.99
2022-12-23T07:39:55.893Z,10.70
2022-12-23T07:42:44.029Z,10.45
2022-12-23T07:45:09.733Z,10.44
2022-12-23T07:47:36.927Z,10.08
2022-12-23T07:50:04.764Z,10.31
2022-12-23T07:52:31.611Z,10.31
2022-12-23T07:54:58.323Z,10.02
2022-12-23T07:57:25.532Z,9.91
2022-12-23T07:59:54.624Z,10.02
2022-12-23T08:02:24.361Z,10.40
2022-12-23T08:04:51.377Z,10.56
2022-12-23T08:07:19.469Z,10.54
2022-12-23T08:09:47.153Z,10.77
2022-12-23T08:12:14.172Z,10.56
2022-12-23T08:14:41.391Z,10.28
2022-12-23T08:17:10.551Z,10.20
2022-12-23T08:19:37.711Z,11.02
2022-12-23T08:22:08.426Z,10.91
2022-12-23T08:24:35.389Z,10.79
2022-12-23T08:27:05.309Z,10.31
2022-12-23T08:29:36.224Z,10.22
2022-12-23T08:32:09.074Z,10.92
2022-12-23T08:34:36.557Z,10.64
2022-12-23T08:37:03.652Z,10.24
2022-12-23T08:39:31.092Z,10.75
2022-12-23T08:42:03.129Z,10.83
2022-12-23T08:44:32.733Z,11.36
2022-12-23T08:47:00.190Z,11.05
2022-12-23T08:49:27.403Z,11.85
2022-12-23T08:52:00.504Z,10.61
2022-12-23T08:54:28.385Z,10.22
2022-12-23T08:56:55.817Z,10.44
2022-12-23T08:59:25.476Z,10.61
2022-12-23T09:01:52.699Z,11.09
2022-12-23T09:04:19.900Z,10.61
2022-12-23T09:06:47.102Z,11.24
2022-12-23T09:09:16.126Z,10.99
2022-12-23T09:11:45.962Z,11.04
2022-12-23T09:14:13.035Z,10.36
2022-12-23T09:16:40.642Z,10.75
2022-12-23T09:19:07.941Z,10.59
2022-12-23T09:21:37.110Z,10.68
2022-12-23T09:24:05.611Z,10.79
2022-12-23T09:26:35.372Z,10.87
2022-12-23T09:29:02.731Z,10.82
2022-12-23T09:31:36.224Z,10.85
2022-12-23T09:34:04.471Z,10.59
2022-12-23T09:36:37.532Z,10.79
2022-12-23T09:39:04.507Z,10.72
2022-12-23T09:42:15.844Z,10.62
2022-12-23T09:45:21.793Z,10.99
2022-12-23T09:47:48.774Z,10.89
2022-12-23T09:50:28.378Z,10.67
2022-12-23T09:53:06.077Z,10.80
2022-12-23T09:56:04.563Z,10.92
2022-12-23T09:59:18.833Z,10.49
2022-12-23T10:04:54.665Z,10.89
2022-12-23T10:07:37.478Z,11.22
2022-12-23T10:10:27.040Z,11.07
2022-12-23T10:12:54.594Z,10.89
2022-12-23T10:18:56.406Z,11.34
2022-12-23T10:21:46.915Z,10.69
2022-12-23T10:24:21.714Z,10.82
2022-12-23T10:27:03.750Z,10.54
2022-12-23T10:29:31.609Z,10.62
2022-12-23T10:32:17.613Z,10.61
2022-12-23T10:34:59.509Z,11.47
2022-12-23T10:38:04.721Z,11.82
2022-12-23T10:41:09.963Z,11.60
2022-12-23T10:44:17.484Z,11.34
2022-12-23T10:47:31.647Z,11.07
2022-12-23T10:50:11.140Z,10.81
2022-12-23T10:52:44.398Z,11.11
2022-12-23T10:55:31.373Z,11.58
2022-12-23T10:58:20.623Z,11.22
2022-12-23T11:01:26.117Z,11.04
2022-12-23T11:04:15.387Z,11.42
2022-12-23T11:07:34.381Z,11.71
2022-12-23T11:10:13.264Z,12.21
2022-12-23T11:12:48.076Z,11.81
2022-12-23T11:15:50.883Z,11.73
2022-12-23T11:18:23.727Z,11.99
2022-12-23T11:21:13.545Z,11.79
2022-12-23T11:23:40.577Z,11.51
2022-12-23T11:26:12.329Z,11.56
2022-12-23T11:28:46.654Z,11.40
2022-12-23T11:31:15.764Z,10.90
2022-12-23T11:34:02.452Z,11.09
2022-12-23T11:36:32.131Z,11.09
2022-12-23T11:42:28.794Z,10.78
2022-12-23T11:44:58.264Z,10.72
2022-12-23T11:47:43.682Z,10.69
2022-12-23T11:50:34.668Z,10.78
2022-12-23T11:53:21.457Z,10.75
2022-12-23T11:56:01.569Z,10.66
2022-12-23T11:58:29.749Z,10.84
2022-12-23T12:01:07.677Z,10.68
2022-12-23T12:03:38.338Z,10.75
2022-12-23T12:06:06.065Z,10.69
2022-12-23T12:08:39.075Z,10.56
2022-12-23T12:11:15.500Z,10.63
2022-12-23T12:13:43.643Z,10.68
2022-12-23T12:16:49.705Z,10.65
2022-12-23T12:19:36.612Z,10.73
2022-12-23T12:22:20.547Z,10.50
2022-12-23T12:24:53.791Z,10.81
2022-12-23T12:27:34.366Z,10.78
2022-12-23T12:30:08.409Z,10.69
2022-12-23T12:32:43.058Z,10.61
2022-12-23T12:36:05.744Z,10.52
2022-12-23T12:38:33.240Z,10.47
2022-12-23T12:41:08.792Z,11.01
2022-12-23T12:43:43.370Z,10.82
2022-12-23T12:46:43.383Z,11.22
2022-12-23T12:49:20.822Z,11.61
2022-12-23T12:52:20.393Z,11.28
2022-12-23T12:55:09.786Z,11.25
2022-12-23T12:57:37.166Z,11.27
2022-12-23T13:00:11.529Z,11.45
2022-12-23T13:03:16.097Z,11.22
2022-12-23T13:06:00.131Z,10.98
2022-12-23T13:09:02.902Z,10.94
2022-12-23T13:11:50.880Z,10.78
2022-12-23T13:14:35.653Z,11.07
2022-12-23T13:17:28.848Z,11.06
2022-12-23T13:20:43.735Z,11.10
2022-12-23T13:23:42.917Z,11.33
2022-12-23T13:29:36.742Z,11.65
2022-12-23T13:32:30.314Z,11.57
2022-12-23T13:35:32.257Z,11.31
2022-12-23T13:38:21.597Z,11.24
2022-12-23T13:41:34.880Z,11.01
2022-12-23T13:44:10.083Z,11.34
2022-12-23T13:47:03.436Z,11.40
2022-12-23T13:53:07.270Z,11.41
2022-12-23T13:55:56.847Z,11.57
2022-12-23T13:58:28.221Z,11.56
2022-12-23T14:01:18.832Z,11.53
2022-12-23T14:04:27.960Z,12.09
2022-12-23T14:06:59.154Z,12.15
2022-12-23T14:09:37.407Z,11.97
2022-12-23T14:15:56.219Z,11.42
2022-12-23T14:18:47.410Z,11.59
2022-12-23T14:21:55.336Z,11.18
2022-12-23T14:25:19.208Z,11.14
2022-12-23T14:27:54.313Z,10.99
2022-12-23T14:30:34.746Z,10.27
2022-12-23T14:36:33.963Z,10.44
2022-12-23T14:39:13.735Z,10.62
2022-12-23T14:41:52.160Z,10.79
2022-12-23T14:44:20.906Z,10.87
2022-12-23T14:46:57.361Z,11.13
2022-12-23T14:49:40.136Z,11.02
2022-12-23T14:52:50.731Z,11.20
2022-12-23T14:55:30.978Z,11.48
2022-12-23T14:58:17.881Z,11.36
2022-12-23T15:03:54.528Z,11.23
2022-12-23T15:07:09.047Z,11.03
2022-12-23T15:09:49.395Z,11.22
2022-12-23T15:12:27.276Z,11.08
2022-12-23T15:15:05.994Z,11.14
2022-12-23T15:17:35.420Z,11.23
2022-12-23T15:20:16.451Z,11.44
2022-12-23T15:22:44.794Z,11.15
2022-12-23T15:25:28.145Z,11.30
2022-12-23T15:28:01.434Z,11.32
2022-12-23T15:30:34.052Z,11.27
2022-12-23T15:33:06.412Z,10.93
2022-12-23T15:35:44.409Z,11.28
2022-12-23T15:38:21.615Z,11.30
2022-12-23T15:41:05.921Z,11.43
2022-12-23T15:43:40.287Z,11.37
2022-12-23T15:46:23.451Z,11.22
2022-12-23T15:48:54.118Z,11.44
2022-12-23T15:52:05.948Z,11.58
2022-12-23T15:54:25.379Z,11.66
2022-12-23T15:56:52.775Z,11.70
2022-12-23T15:59:23.021Z,11.56
2022-12-23T16:01:51.301Z,11.53
2022-12-23T16:04:33.578Z,11.58
2022-12-23T16:07:01.641Z,11.64
2022-12-23T16:09:35.084Z,12.05
2022-12-23T16:12:19.782Z,11.54
2022-12-23T16:15:39.730Z,11.23
2022-12-23T16:18:26.509Z,10.83
2022-12-23T16:20:57.413Z,11.01
2022-12-23T16:23:24.176Z,11.12
2022-12-23T16:25:52.452Z,11.15
2022-12-23T16:28:23.039Z,11.43
2022-12-23T16:30:52.395Z,11.28
2022-12-23T16:33:34.682Z,11.28
2022-12-23T16:36:26.576Z,11.54
2022-12-23T16:39:25.343Z,11.78
2022-12-23T16:41:53.124Z,11.86
2022-12-23T16:44:25.341Z,11.75
2022-12-23T16:46:53.070Z,11.79
2022-12-23T16:49:21.578Z,11.44
2022-12-23T16:51:50.450Z,11.49
2022-12-23T16:54:20.480Z,11.88
2022-12-23T16:56:49.995Z,11.55
2022-12-23T16:59:17.330Z,11.59
2022-12-23T17:01:51.059Z,11.44
2022-12-23T17:04:23.888Z,11.22
2022-12-23T17:06:50.889Z,11.08
2022-12-23T17:09:17.988Z,11.13
2022-12-23T17:11:48.866Z,11.10
2022-12-23T17:14:23.545Z,10.87
2022-12-23T17:16:51.464Z,11.04
2022-12-23T17:19:27.139Z,11.18
2022-12-23T17:21:58.450Z,11.12
2022-12-23T17:28:18.230Z,11.13
2022-12-23T17:31:14.868Z,11.10
2022-12-23T17:33:45.683Z,10.89
2022-12-23T17:36:12.866Z,10.82
2022-12-23T17:38:40.723Z,10.78
2022-12-23T17:41:20.394Z,11.10
2022-12-23T17:43:47.227Z,10.99
2022-12-23T17:46:15.086Z,10.83
2022-12-23T17:48:41.996Z,10.83
2022-12-23T17:51:14.064Z,10.78
2022-12-23T17:53:44.730Z,11.03
2022-12-23T17:56:17.685Z,10.84
2022-12-23T17:58:44.798Z,10.81
2022-12-23T18:01:31.886Z,10.63
2022-12-23T18:04:07.552Z,10.61
2022-12-23T18:06:43.350Z,10.53
2022-12-23T18:09:15.569Z,10.57
2022-12-23T18:11:45.192Z,10.70
2022-12-23T18:14:21.460Z,10.75
2022-12-23T18:16:51.200Z,10.87
2022-12-23T18:19:23.446Z,10.90
2022-12-23T18:21:50.913Z,10.90
2022-12-23T18:24:23.717Z,10.91
2022-12-23T18:26:50.725Z,10.83
2022-12-23T18:29:17.757Z,10.87
2022-12-23T18:31:51.475Z,10.94
2022-12-23T18:34:19.256Z,11.21
2022-12-23T18:36:46.389Z,10.95
2022-12-23T18:43:44.390Z,10.88
2022-12-23T18:46:16.080Z,11.08
2022-12-23T18:48:43.225Z,10.83
2022-12-23T18:51:13.685Z,11.02
2022-12-23T18:53:48.498Z,11.25
2022-12-23T18:56:17.646Z,11.54
2022-12-23T18:58:47.462Z,11.13
2022-12-23T19:01:16.953Z,11.30
2022-12-23T19:03:49.396Z,11.19
2022-12-23T19:06:18.264Z,11.50
2022-12-23T19:08:50.028Z,11.32
2022-12-23T19:11:22.804Z,10.98
2022-12-23T19:13:49.852Z,11.19
2022-12-23T19:16:22.752Z,11.11
2022-12-23T19:18:50.228Z,10.98
2022-12-23T19:21:17.791Z,11.44
2022-12-23T19:23:45.672Z,11.05
2022-12-23T19:26:13.486Z,11.33
2022-12-23T19:28:40.698Z,11.00
2022-12-23T19:31:11.940Z,11.25
2022-12-23T19:33:40.467Z,11.70
2022-12-23T19:36:18.228Z,11.47
2022-12-23T19:38:51.170Z,11.51
2022-12-23T19:41:18.692Z,11.65
2022-12-23T19:43:51.669Z,11.51
2022-12-23T19:46:18.815Z,11.67
2022-12-23T19:48:51.018Z,11.42
2022-12-23T19:51:18.070Z,11.30
2022-12-23T19:53:48.863Z,11.36
2022-12-23T19:56:16.175Z,11.24
2022-12-23T19:58:43.862Z,11.45
2022-12-23T20:01:16.201Z,11.52
2022-12-23T20:03:43.560Z,11.60
2022-12-23T20:06:15.701Z,11.42
2022-12-23T20:08:42.777Z,11.65
2022-12-23T20:11:13.982Z,11.17
2022-12-23T20:13:45.943Z,11.56
2022-12-23T20:16:15.594Z,11.28
2022-12-23T20:18:42.596Z,11.31
2022-12-23T20:21:09.510Z,11.11
2022-12-23T20:23:37.692Z,11.18
2022-12-23T20:26:05.406Z,11.29
2022-12-23T20:28:33.339Z,11.14
2022-12-23T20:31:48.887Z,11.11
2022-12-23T20:34:16.698Z,11.12
2022-12-23T20:36:44.067Z,11.53
2022-12-23T20:39:11.203Z,11.63
2022-12-23T20:41:40.970Z,11.28
2022-12-23T20:46:58.393Z,10.98
2022-12-23T20:49:25.602Z,11.50
2022-12-23T20:51:55.056Z,11.75
2022-12-23T20:54:33.613Z,11.71
2022-12-23T20:57:01.896Z,10.84
2022-12-23T20:59:34.782Z,10.80
2022-12-23T21:02:02.352Z,11.78
2022-12-23T21:04:30.269Z,11.45
2022-12-23T21:06:57.179Z,11.59
2022-12-23T21:09:24.637Z,11.14
2022-12-23T21:11:57.528Z,10.62
2022-12-23T21:14:25.060Z,11.17
2022-12-23T21:16:52.001Z,10.73
2022-12-23T21:19:25.142Z,11.37
2022-12-23T21:21:52.909Z,11.41
2022-12-23T21:24:23.099Z,10.95
2022-12-23T21:30:02.920Z,11.92
2022-12-23T21:32:35.714Z,11.60
2022-12-23T21:35:04.468Z,11.34
2022-12-23T21:37:44.448Z,11.55
2022-12-23T21:40:13.266Z,11.72
2022-12-23T21:42:42.858Z,11.34
2022-12-23T21:45:18.698Z,11.26
2022-12-23T21:47:45.495Z,11.56
2022-12-23T21:50:16.021Z,11.25
2022-12-23T21:52:45.017Z,11.08
2022-12-23T21:55:17.793Z,11.12
2022-12-23T21:57:47.373Z,10.92
2022-12-23T22:00:15.556Z,10.96
2022-12-23T22:02:43.589Z,10.98
2022-12-23T22:05:10.645Z,11.07
2022-12-23T22:07:37.400Z,11.17
2022-12-23T22:10:10.591Z,10.92
2022-12-23T22:12:38.806Z,11.08
2022-12-23T22:15:11.464Z,11.19
2022-12-23T22:17:39.314Z,11.33
2022-12-23T22:20:07.681Z,11.37
2022-12-23T22:22:34.576Z,11.31
2022-12-23T22:25:07.933Z,11.58
2022-12-23T22:27:35.178Z,11.68
2022-12-23T22:30:02.517Z,11.52
2022-12-23T22:32:40.596Z,11.20
2022-12-23T22:35:15.195Z,11.20
2022-12-23T22:37:48.070Z,11.26
2022-12-23T22:43:19.351Z,11.42
2022-12-23T22:45:58.630Z,11.30
2022-12-23T22:48:32.334Z,11.19
2022-12-23T22:51:07.364Z,11.16
2022-12-23T22:54:18.413Z,11.55
2022-12-23T22:56:46.184Z,11.31
2022-12-23T22:59:25.076Z,11.13
2022-12-23T23:01:52.540Z,11.16
2022-12-23T23:04:20.041Z,11.23
2022-12-23T23:09:54.543Z,11.26
2022-12-23T23:12:22.030Z,11.32
2022-12-23T23:14:50.163Z,11.45
2022-12-23T23:17:27.586Z,11.29
2022-12-23T23:20:00.134Z,11.35
2022-12-23T23:22:28.135Z,11.23
2022-12-23T23:25:00.482Z,11.03
2022-12-23T23:27:27.314Z,11.14
2022-12-23T23:29:54.400Z,11.19
2022-12-23T23:32:21.253Z,11.35
2022-12-23T23:34:48.333Z,11.04
2022-12-23T23:37:15.355Z,11.08
2022-12-23T23:39:42.203Z,10.95
2022-12-23T23:42:13.228Z,10.92
2022-12-23T23:44:41.707Z,10.85
2022-12-23T23:47:11.239Z,10.76
2022-12-23T23:49:40.428Z,10.88
2022-12-23T23:52:08.025Z,10.92
2022-12-23T23:54:40.880Z,10.96
2022-12-23T23:57:13.936Z,10.82
2022-12-23T23:59:43.550Z,10.96
